Time;durP1;ratioP1;P1;durP2;ratioP2;P2;SDS_P1;SDS_P2;PMS_P1;PMS_P2;Temp;Humidity;BMP_temperature;BMP_pressure;BME280_temperature;BME280_humidity;BME280_pressure;Samples;Min_cycle;Max_cycle;Signal;HPM_P1;HPM_P2
2022/10/28 00:01:23;;;;;;;21.95;8.15;;;13.50;99.90;;;12.78;100.00;97937.03;4959663;28;20575;-72
2022/10/28 00:03:54;;;;;;;15.32;6.57;;;13.60;99.90;;;12.83;100.00;97940.28;4959263;28;20528;-71
2022/10/28 00:06:31;;;;;;;19.58;6.57;;;13.60;99.90;;;12.98;100.00;97936.97;4961022;28;20047;-71
2022/10/28 00:08:59;;;;;;;19.33;6.30;;;13.70;99.90;;;13.21;100.00;97934.22;4973295;28;20051;-72
2022/10/28 00:11:32;;;;;;;19.40;5.32;;;13.80;99.90;;;13.26;100.00;97930.44;4961740;28;20101;-71
2022/10/28 00:14:03;;;;;;;20.42;6.10;;;14.00;99.90;;;13.29;100.00;97932.09;4976821;28;20108;-70
2022/10/28 00:16:33;;;;;;;15.27;5.93;;;14.00;99.90;;;13.30;100.00;97937.25;4964523;28;20621;-71
2022/10/28 00:19:02;;;;;;;11.35;4.97;;;14.10;99.90;;;13.33;100.00;97929.28;4969277;28;20058;-70
2022/10/28 00:21:35;;;;;;;18.80;5.65;;;14.10;99.90;;;13.25;100.00;97930.53;4963262;28;20058;-69
2022/10/28 00:24:02;;;;;;;21.30;5.07;;;14.10;99.90;;;13.32;100.00;97929.34;4962850;28;20051;-69
2022/10/28 00:26:31;;;;;;;16.33;5.25;;;14.10;99.90;;;13.32;100.00;97932.81;4976735;28;20047;-70
2022/10/28 00:29:03;;;;;;;15.15;5.53;;;14.10;99.90;;;13.39;100.00;97921.16;4958047;28;20054;-71
2022/10/28 00:31:31;;;;;;;15.27;5.20;;;14.20;99.90;;;13.51;100.00;97924.94;4977472;28;20197;-68
2022/10/28 00:34:00;;;;;;;18.88;5.10;;;14.20;99.90;;;13.57;100.00;97924.63;4961560;28;20061;-69
2022/10/28 00:36:36;;;;;;;18.63;5.10;;;14.30;99.90;;;13.70;100.00;97926.63;4960544;28;20654;-70
2022/10/28 00:39:17;;;;;;;17.25;4.15;;;14.40;99.90;;;13.68;100.00;97931.06;4962253;28;20074;-70
2022/10/28 00:41:54;;;;;;;14.48;5.18;;;14.50;99.90;;;13.73;100.00;97929.94;4963738;28;20059;-69
2022/10/28 00:44:52;;;;;;;11.07;4.93;;;14.50;99.90;;;13.85;100.00;97917.22;4964047;28;20058;-70
2022/10/28 00:47:53;;;;;;;9.45;4.80;;;14.60;99.90;;;13.88;100.00;97919.66;4966408;28;20054;-69
2022/10/28 00:50:47;;;;;;;13.93;4.50;;;14.70;99.90;;;13.91;100.00;97919.50;4975044;28;20806;-70
2022/10/28 00:53:42;;;;;;;13.18;4.45;;;14.80;99.90;;;13.98;100.00;97921.72;4965481;28;20058;-70
2022/10/28 00:56:11;;;;;;;11.95;4.47;;;14.80;99.90;;;14.01;100.00;97915.50;4961037;28;20054;-70
2022/10/28 00:58:38;;;;;;;12.45;4.40;;;14.80;99.90;;;14.08;100.00;97916.88;4966397;28;20059;-70
2022/10/28 01:01:05;;;;;;;10.88;3.75;;;14.90;99.90;;;14.21;100.00;97919.72;4983081;28;20059;-71
2022/10/28 01:03:32;;;;;;;16.30;4.00;;;14.90;99.90;;;14.34;100.00;97914.66;4964102;28;20066;-71
2022/10/28 01:06:00;;;;;;;13.77;3.83;;;14.90;99.90;;;14.38;100.00;97916.19;4966163;28;20046;-70
2022/10/28 01:08:27;;;;;;;9.73;3.67;;;15.00;99.90;;;14.41;100.00;97913.41;4979166;28;20062;-69
2022/10/28 01:11:19;;;;;;;12.40;3.70;;;15.10;99.90;;;14.39;100.00;97908.31;4966737;28;20393;-70
2022/10/28 01:13:59;;;;;;;12.13;3.50;;;15.20;99.90;;;14.49;100.00;97903.41;4964801;28;20051;-70
2022/10/28 01:17:20;;;;;;;12.40;4.53;;;15.20;99.90;;;14.44;100.00;97906.28;4963210;28;20042;-70
2022/10/28 01:20:24;;;;;;;11.50;3.80;;;15.30;99.90;;;14.36;100.00;97913.66;4964193;28;20054;-69
2022/10/28 01:23:09;;;;;;;10.20;4.00;;;15.20;99.90;;;14.37;100.00;97915.38;4981548;28;20058;-70
2022/10/28 01:25:54;;;;;;;13.40;4.13;;;15.20;99.90;;;14.43;100.00;97915.03;4968242;28;20077;-70
2022/10/28 01:28:59;;;;;;;14.50;4.00;;;15.20;99.90;;;14.41;100.00;97913.41;4965500;28;20050;-70
2022/10/28 01:31:53;;;;;;;15.82;3.92;;;15.20;99.90;;;14.39;100.00;97917.88;4964968;28;20417;-71
2022/10/28 01:34:57;;;;;;;14.70;4.43;;;15.20;99.90;;;14.32;100.00;97906.94;4966182;28;20425;-69
2022/10/28 01:37:55;;;;;;;17.40;4.13;;;15.30;99.90;;;14.36;100.00;97910.22;4969508;28;20528;-70
2022/10/28 01:40:47;;;;;;;7.93;3.35;;;15.20;99.90;;;14.41;100.00;97901.22;4967477;28;20191;-70
2022/10/28 01:43:25;;;;;;;13.13;3.97;;;15.20;99.90;;;14.33;100.00;97895.56;4967061;28;20047;-70
2022/10/28 01:45:59;;;;;;;10.40;3.20;;;15.20;99.90;;;14.41;100.00;97887.31;4966836;28;20057;-70
2022/10/28 01:48:57;;;;;;;13.38;4.32;;;15.20;99.90;;;14.35;100.00;97882.44;4966463;28;20043;-70
2022/10/28 01:51:34;;;;;;;12.98;4.15;;;15.20;99.90;;;14.34;100.00;97868.50;4969564;28;20051;-69
2022/10/28 01:54:05;;;;;;;16.75;4.20;;;15.10;99.90;;;14.08;100.00;97876.88;4962697;28;20062;-71
2022/10/28 01:56:37;;;;;;;12.52;4.20;;;15.10;99.90;;;13.91;100.00;97864.69;4976527;28;20149;-70
2022/10/28 01:59:09;;;;;;;;;;;15.00;99.90;;;13.91;100.00;97867.28;4980661;28;20062;-71
2022/10/28 02:01:36;;;;;;;22.98;5.28;;;14.90;99.90;;;13.99;100.00;97865.16;4979816;28;19926;-69
2022/10/28 02:04:03;;;;;;;13.52;4.82;;;14.80;99.90;;;13.97;100.00;97867.81;4962948;28;20078;-70
2022/10/28 02:06:33;;;;;;;11.82;4.53;;;14.90;99.90;;;14.11;100.00;97861.88;4968301;28;20047;-70
2022/10/28 02:09:29;;;;;;;21.95;4.43;;;14.90;99.90;;;14.20;100.00;97858.78;4981174;28;20058;-71
2022/10/28 02:12:28;;;;;;;14.57;4.25;;;14.80;99.90;;;14.15;100.00;97855.59;4965711;28;20099;-70
2022/10/28 02:15:31;;;;;;;14.73;4.50;;;14.90;99.90;;;14.22;100.00;97845.66;4966822;28;20049;-71
2022/10/28 02:18:12;;;;;;;14.05;4.32;;;14.90;99.90;;;14.21;100.00;97842.22;4969974;28;20147;-70
2022/10/28 02:21:04;;;;;;;12.40;4.22;;;14.90;99.90;;;14.28;100.00;97852.31;4966934;28;20065;-70
2022/10/28 02:24:12;;;;;;;17.50;4.75;;;14.90;99.90;;;14.38;100.00;97859.59;4981051;28;20042;-70
2022/10/28 02:26:52;;;;;;;17.77;4.78;;;14.90;99.90;;;14.29;100.00;97849.63;4972250;28;20467;-72
2022/10/28 02:29:37;;;;;;;17.90;4.40;;;15.00;99.90;;;14.26;100.00;97848.97;4982997;28;20049;-70
2022/10/28 02:32:12;;;;;;;15.18;4.38;;;15.00;99.90;;;14.29;100.00;97848.78;4967814;28;20050;-70
2022/10/28 02:34:44;;;;;;;13.77;4.40;;;14.90;99.90;;;14.18;100.00;97849.34;4979144;28;20039;-71
2022/10/28 02:37:20;;;;;;;18.52;4.65;;;15.00;99.90;;;14.17;100.00;97855.53;4980666;28;20054;-70
2022/10/28 02:39:53;;;;;;;17.10;4.88;;;15.00;99.90;;;14.27;100.00;97848.03;4979286;28;20058;-71
2022/10/28 02:42:27;;;;;;;;;;;15.00;99.90;;;14.16;100.00;97854.69;4966328;28;20172;-70
2022/10/28 02:45:03;;;;;;;11.63;3.85;;;15.00;99.90;;;14.21;100.00;97847.44;4971749;28;19930;-70
2022/10/28 02:47:35;;;;;;;13.45;4.55;;;15.00;99.90;;;14.25;100.00;97853.31;4988004;28;20065;-70
2022/10/28 02:50:09;;;;;;;15.80;4.75;;;15.00;99.90;;;14.34;100.00;97852.00;4982981;28;20065;-70
2022/10/28 02:52:41;;;;;;;14.00;4.88;;;15.00;99.90;;;14.31;100.00;97850.41;4981713;28;20704;-69
2022/10/28 02:55:08;;;;;;;20.33;4.83;;;15.00;99.90;;;14.33;100.00;97843.31;4981079;28;20054;-70
2022/10/28 02:57:41;;;;;;;11.65;5.10;;;15.10;99.90;;;14.40;100.00;97839.47;4948682;28;20708;-70
2022/10/28 03:00:15;;;;;;;11.60;4.65;;;15.20;99.90;;;14.44;100.00;97846.22;4976402;28;20058;-70
2022/10/28 03:02:42;;;;;;;11.55;4.93;;;15.20;99.90;;;14.46;100.00;97848.75;4978096;28;20524;-70
2022/10/28 03:05:09;;;;;;;20.70;6.32;;;15.20;99.90;;;14.40;100.00;97846.47;4967106;28;20062;-69
2022/10/28 03:07:36;;;;;;;19.90;8.18;;;15.20;99.90;;;14.41;100.00;97843.78;4971278;28;20058;-70
2022/10/28 03:10:04;;;;;;;19.15;7.40;;;15.20;99.90;;;14.30;100.00;97848.72;4966472;28;20050;-70
2022/10/28 03:12:31;;;;;;;14.30;6.28;;;15.20;99.90;;;14.19;100.00;97841.47;4968604;28;20640;-70
2022/10/28 03:14:58;;;;;;;15.73;5.18;;;15.20;99.90;;;14.11;100.00;97840.16;4969141;28;20051;-69
2022/10/28 03:17:24;;;;;;;13.32;4.38;;;15.10;99.90;;;14.02;100.00;97842.31;4965936;28;20074;-70
2022/10/28 03:19:51;;;;;;;20.48;5.00;;;15.10;99.90;;;13.92;100.00;97837.69;4968166;28;20154;-69
2022/10/28 03:22:18;;;;;;;17.23;5.20;;;15.00;99.90;;;14.02;100.00;97844.09;4970499;28;20050;-70
2022/10/28 03:24:45;;;;;;;15.63;4.97;;;14.90;99.90;;;14.06;100.00;97840.41;4969893;28;20058;-69
2022/10/28 03:27:12;;;;;;;13.98;5.18;;;14.90;99.90;;;14.02;100.00;97838.88;4964032;28;20050;-69
2022/10/28 03:29:39;;;;;;;14.98;5.07;;;14.80;99.90;;;13.86;100.00;97845.81;4968952;28;20512;-69
2022/10/28 03:32:11;;;;;;;;;;;14.70;99.90;;;13.85;100.00;97846.75;4966631;28;20472;-70
2022/10/28 03:34:38;;;;;;;13.93;4.70;;;14.70;99.90;;;13.82;100.00;97845.13;4967016;28;19926;-70
2022/10/28 03:37:05;;;;;;;15.38;4.53;;;14.60;99.90;;;13.85;100.00;97849.38;4967850;28;20101;-71
2022/10/28 03:39:32;;;;;;;15.43;4.88;;;14.60;99.90;;;13.70;100.00;97846.59;4965956;28;20054;-70
2022/10/28 03:41:59;;;;;;;16.48;4.68;;;14.50;99.90;;;13.59;100.00;97844.56;4967790;28;20047;-70
2022/10/28 03:44:26;;;;;;;13.63;5.05;;;14.50;99.90;;;13.54;100.00;97840.47;4973707;28;20038;-71
2022/10/28 03:46:53;;;;;;;14.23;4.35;;;14.50;99.90;;;13.51;100.00;97844.09;4967709;28;20058;-70
2022/10/28 03:49:20;;;;;;;14.25;5.57;;;14.40;99.90;;;13.34;100.00;97851.91;4969840;28;20520;-70
2022/10/28 03:51:47;;;;;;;17.45;4.50;;;14.30;99.90;;;13.25;100.00;97855.78;4963270;28;20062;-70
2022/10/28 03:54:13;;;;;;;16.73;5.38;;;14.20;99.90;;;13.14;100.00;97845.88;4966110;28;20065;-70
2022/10/28 03:56:40;;;;;;;13.93;4.65;;;14.10;99.90;;;13.19;100.00;97846.50;4965759;28;20477;-70
2022/10/28 03:59:09;;;;;;;13.00;4.38;;;14.10;99.90;;;13.17;100.00;97847.50;4966293;28;20058;-71
2022/10/28 04:01:36;;;;;;;20.92;5.18;;;14.00;99.90;;;13.17;100.00;97835.28;4965204;28;20055;-70
2022/10/28 04:04:03;;;;;;;13.88;4.82;;;13.90;99.90;;;13.25;100.00;97842.75;4967969;28;20058;-71
2022/10/28 04:06:30;;;;;;;16.30;6.10;;;13.90;99.90;;;13.34;100.00;97841.47;4966505;28;20054;-70
2022/10/28 04:08:57;;;;;;;14.13;4.43;;;13.90;99.90;;;13.52;100.00;97831.88;4967328;28;20062;-70
2022/10/28 04:11:24;;;;;;;23.80;5.53;;;14.00;99.90;;;13.56;100.00;97842.09;4964945;28;20057;-70
2022/10/28 04:13:50;;;;;;;16.50;3.88;;;14.10;99.90;;;13.84;100.00;97845.06;4966786;28;20523;-70
2022/10/28 04:16:17;;;;;;;15.57;4.40;;;14.20;99.90;;;13.89;100.00;97848.25;4967402;28;20055;-70
2022/10/28 04:18:44;;;;;;;11.77;3.75;;;14.30;99.90;;;14.36;100.00;97847.53;4972912;28;20112;-70
2022/10/28 04:21:11;;;;;;;15.23;3.30;;;14.50;99.90;;;14.79;100.00;97858.31;4968741;28;20468;-70
2022/10/28 04:23:38;;;;;;;13.43;3.13;;;14.80;99.90;;;14.57;100.00;97861.25;4971557;28;20055;-71
2022/10/28 04:26:05;;;;;;;12.02;3.28;;;14.90;99.90;;;14.67;100.00;97869.44;4967453;28;20062;-70
2022/10/28 04:28:32;;;;;;;13.60;2.95;;;15.00;99.90;;;15.04;100.00;97876.09;4970136;28;20050;-71
2022/10/28 04:31:01;;;;;;;13.15;3.13;;;15.20;99.90;;;14.92;100.00;97888.06;4971253;28;20477;-71
2022/10/28 04:33:28;;;;;;;6.88;2.42;;;15.30;99.90;;;14.87;100.00;97887.50;4967172;28;20047;-71
2022/10/28 04:35:55;;;;;;;12.35;3.05;;;15.30;99.90;;;14.81;100.00;97882.59;4970100;28;20055;-70
2022/10/28 04:38:22;;;;;;;14.63;3.10;;;15.30;99.90;;;14.88;100.00;97886.53;4974074;28;20077;-71
2022/10/28 04:40:50;;;;;;;10.38;2.83;;;15.30;99.90;;;14.79;100.00;97879.22;4967887;28;20817;-71
2022/10/28 04:43:17;;;;;;;10.20;2.55;;;15.30;99.90;;;15.21;100.00;97880.34;4970078;28;20050;-71
2022/10/28 04:45:45;;;;;;;11.68;2.85;;;15.50;99.90;;;15.19;100.00;97882.22;4970506;28;20469;-71
2022/10/28 04:48:13;;;;;;;13.02;2.80;;;15.60;99.90;;;15.37;100.00;97888.16;4983047;28;20046;-70
2022/10/28 04:50:40;;;;;;;16.30;2.50;;;15.70;99.90;;;15.95;100.00;97891.84;4977460;28;20051;-71
2022/10/28 04:53:07;;;;;;;13.10;3.05;;;16.00;99.90;;;16.04;100.00;97899.16;4971768;28;20062;-70
2022/10/28 04:55:34;;;;;;;11.15;2.33;;;16.20;99.90;;;16.07;100.00;97901.56;4968006;28;20063;-70
2022/10/28 04:58:01;;;;;;;15.70;2.78;;;16.30;99.90;;;16.08;100.00;97919.00;4969878;28;20541;-69
2022/10/28 05:00:29;;;;;;;9.77;2.65;;;16.40;99.90;;;16.08;100.00;97919.81;4969429;28;20047;-71
2022/10/28 05:02:58;;;;;;;9.77;2.13;;;16.50;99.90;;;16.30;100.00;97923.75;4964660;28;20528;-71
2022/10/28 05:05:25;;;;;;;10.88;2.33;;;16.60;99.90;;;16.45;100.00;97929.88;4983647;28;20042;-70
2022/10/28 05:07:52;;;;;;;10.50;3.13;;;16.60;99.90;;;16.46;100.00;97932.38;4968594;28;20570;-71
2022/10/28 05:10:19;;;;;;;11.63;2.38;;;16.80;99.90;;;16.18;100.00;97937.59;4970017;28;20047;-71
2022/10/28 05:12:46;;;;;;;12.10;2.78;;;16.70;99.90;;;16.31;100.00;97942.00;4967661;28;20421;-71
2022/10/28 05:15:14;;;;;;;8.93;2.55;;;16.70;99.90;;;16.39;100.00;97945.94;4970369;28;20049;-70
2022/10/28 05:17:45;;;;;;;9.02;2.53;;;16.80;99.90;;;16.45;100.00;97941.19;4972279;28;20520;-70
2022/10/28 05:20:15;;;;;;;13.32;2.47;;;16.90;99.90;;;16.54;100.00;97950.25;4985895;28;20058;-70
2022/10/28 05:22:52;;;;;;;9.77;2.30;;;16.90;99.90;;;16.62;100.00;97948.00;4969112;28;20055;-71
2022/10/28 05:25:21;;;;;;;10.95;2.20;;;16.90;99.90;;;16.62;100.00;97955.88;4967944;28;20133;-70
2022/10/28 05:27:48;;;;;;;9.30;2.63;;;17.00;99.90;;;16.55;100.00;97951.09;4970264;28;20069;-70
2022/10/28 05:30:15;;;;;;;12.88;2.53;;;17.00;99.90;;;16.53;100.00;97953.81;4970206;28;20476;-71
2022/10/28 05:32:42;;;;;;;12.98;3.13;;;16.90;99.90;;;16.43;100.00;97955.31;4966036;28;20077;-71
2022/10/28 05:35:10;;;;;;;13.27;2.65;;;16.90;99.90;;;16.37;100.00;97943.41;4966603;28;20089;-71
2022/10/28 05:37:36;;;;;;;10.10;3.70;;;16.80;99.90;;;16.30;100.00;97936.84;4967468;28;20055;-71
2022/10/28 05:40:04;;;;;;;12.75;3.35;;;16.80;99.90;;;16.58;100.00;97956.16;4967101;28;20055;-71
2022/10/28 05:42:31;;;;;;;9.55;2.90;;;16.80;99.90;;;16.56;100.00;97950.16;4968219;28;20051;-71
2022/10/28 05:44:58;;;;;;;10.48;2.20;;;16.80;99.90;;;16.48;100.00;97950.63;4968478;28;20893;-71
2022/10/28 05:47:24;;;;;;;11.23;2.45;;;16.80;99.90;;;16.51;100.00;97961.78;4969729;28;20053;-71
2022/10/28 05:49:51;;;;;;;13.93;2.83;;;16.90;99.90;;;16.46;100.00;97957.72;4965343;28;20055;-70
2022/10/28 05:52:19;;;;;;;11.02;2.58;;;16.80;99.90;;;16.40;100.00;97952.84;4966604;28;20054;-70
2022/10/28 05:54:46;;;;;;;7.55;2.15;;;16.80;99.90;;;16.39;100.00;97959.03;4972507;28;20051;-71
2022/10/28 05:57:12;;;;;;;8.73;2.60;;;16.80;99.90;;;16.30;100.00;97960.44;4971674;28;20047;-71
2022/10/28 05:59:39;;;;;;;12.15;3.25;;;16.80;99.90;;;16.41;100.00;97968.50;4971634;28;20149;-71
2022/10/28 06:02:13;;;;;;;10.75;2.22;;;16.80;99.90;;;16.50;100.00;97959.25;4974078;28;20054;-70
2022/10/28 06:04:41;;;;;;;7.38;2.22;;;16.80;99.90;;;16.53;100.00;97972.16;4967087;28;20053;-70
2022/10/28 06:07:08;;;;;;;8.57;2.10;;;16.80;99.90;;;16.53;100.00;97972.16;4972410;28;20612;-71
2022/10/28 06:09:35;;;;;;;13.43;2.38;;;16.80;99.90;;;16.43;100.00;97964.00;4985427;28;20061;-71
2022/10/28 06:12:03;;;;;;;13.02;2.70;;;16.80;99.90;;;16.61;100.00;97966.47;4971264;28;20065;-70
2022/10/28 06:14:31;;;;;;;10.70;2.03;;;16.90;99.90;;;16.44;100.00;97967.47;4971271;28;20508;-70
2022/10/28 06:16:57;;;;;;;13.07;2.20;;;16.90;99.90;;;16.54;100.00;97965.16;4972398;28;20078;-71
2022/10/28 06:19:24;;;;;;;13.90;2.47;;;16.90;99.90;;;16.57;100.00;97971.03;4983612;28;20058;-70
2022/10/28 06:21:51;;;;;;;10.32;2.47;;;16.90;99.90;;;16.51;100.00;97979.25;4969105;28;20508;-71
2022/10/28 06:24:18;;;;;;;10.50;2.55;;;16.90;99.90;;;16.48;100.00;97969.81;4970185;28;20077;-70
2022/10/28 06:26:45;;;;;;;10.57;2.15;;;16.90;99.90;;;16.62;100.00;97989.94;4972523;28;20047;-71
2022/10/28 06:29:12;;;;;;;9.50;2.28;;;17.00;99.90;;;16.64;100.00;97985.44;4973380;28;20500;-71
2022/10/28 06:31:40;;;;;;;7.25;1.80;;;17.00;99.90;;;16.71;100.00;97993.78;4971059;28;20056;-71
2022/10/28 06:34:11;;;;;;;12.70;2.33;;;17.10;99.90;;;16.65;100.00;97989.78;4968739;28;20405;-71
2022/10/28 06:36:38;;;;;;;7.75;2.53;;;17.10;99.90;;;16.52;100.00;97992.28;4980467;28;20222;-71
2022/10/28 06:39:06;;;;;;;12.40;2.60;;;17.10;99.90;;;16.64;100.00;97992.47;4966291;28;20055;-71
2022/10/28 06:41:33;;;;;;;9.20;2.38;;;17.10;99.90;;;16.67;100.00;98000.13;4967627;28;20055;-71
2022/10/28 06:44:00;;;;;;;11.63;2.72;;;17.20;99.90;;;16.48;100.00;98003.03;4969469;28;20061;-71
2022/10/28 06:46:27;;;;;;;12.73;2.95;;;17.10;99.90;;;16.32;100.00;98005.72;4968469;28;20068;-70
2022/10/28 06:48:55;;;;;;;12.20;3.03;;;17.00;99.90;;;16.22;100.00;98012.44;4969548;28;20421;-71
2022/10/28 06:51:22;;;;;;;8.63;2.22;;;17.00;99.90;;;16.19;100.00;98000.34;4968793;28;20053;-71
2022/10/28 06:53:51;;;;;;;11.30;2.78;;;16.80;99.90;;;16.24;100.00;98003.56;4970971;28;20054;-71
2022/10/28 06:56:18;;;;;;;15.32;3.45;;;16.80;99.90;;;16.28;100.00;97996.34;4972798;28;20057;-71
2022/10/28 06:58:53;;;;;;;13.05;2.50;;;16.70;99.90;;;16.24;100.00;98002.72;4969846;28;20059;-70
2022/10/28 07:01:21;;;;;;;12.75;2.85;;;16.70;99.90;;;16.33;100.00;98001.31;4970203;28;20051;-71
2022/10/28 07:03:48;;;;;;;10.00;3.00;;;16.70;99.90;;;16.44;100.00;98004.97;4972787;28;20258;-71
2022/10/28 07:06:16;;;;;;;11.07;2.47;;;16.80;99.90;;;16.41;100.00;98007.78;4970727;28;20684;-70
2022/10/28 07:08:43;;;;;;;13.55;2.90;;;16.90;99.90;;;16.63;100.00;98003.91;4966982;28;20043;-69
2022/10/28 07:11:10;;;;;;;18.23;3.03;;;17.00;99.90;;;16.73;100.00;98010.25;4970561;28;20424;-71
2022/10/28 07:13:37;;;;;;;10.68;2.40;;;17.10;99.90;;;16.94;100.00;98023.88;4980399;28;20050;-71
2022/10/28 07:16:04;;;;;;;9.55;2.55;;;17.20;99.90;;;17.33;100.00;98027.56;4965764;28;20042;-71
2022/10/28 07:18:31;;;;;;;15.27;2.78;;;17.50;99.90;;;17.51;100.00;98029.03;4964050;28;20054;-70
2022/10/28 07:21:00;;;;;;;11.52;2.80;;;17.70;99.90;;;17.64;100.00;98041.38;4961355;28;20061;-70
2022/10/28 07:23:30;;;;;;;14.30;2.80;;;18.00;99.90;;;17.53;100.00;98042.91;4966919;28;20055;-71
2022/10/28 07:25:57;;;;;;;9.18;2.63;;;18.10;99.90;;;17.67;100.00;98044.66;4980585;28;20070;-71
2022/10/28 07:28:27;;;;;;;12.93;2.42;;;18.10;99.90;;;17.74;100.00;98045.97;4963817;28;20054;-71
2022/10/28 07:30:59;;;;;;;14.98;2.78;;;18.20;99.90;;;18.00;100.00;98055.75;4964517;28;20093;-71
2022/10/28 07:33:26;;;;;;;14.95;2.90;;;18.40;99.90;;;18.11;100.00;98069.88;4966214;28;20872;-71
2022/10/28 07:35:53;;;;;;;8.80;1.95;;;18.60;99.90;;;18.05;100.00;98061.53;4962388;28;20413;-71
2022/10/28 07:38:20;;;;;;;12.95;2.45;;;18.60;99.90;;;18.16;100.00;98062.53;4968187;28;20130;-72
2022/10/28 07:40:47;;;;;;;13.82;2.05;;;18.70;99.90;;;18.30;100.00;98076.53;4971739;28;20054;-71
2022/10/28 07:43:13;;;;;;;15.45;3.25;;;18.80;99.90;;;18.39;100.00;98068.88;4970777;28;20057;-71
2022/10/28 07:45:40;;;;;;;13.48;1.98;;;18.80;99.90;;;18.58;100.00;98083.41;4965426;28;20646;-71
2022/10/28 07:48:08;;;;;;;16.33;2.38;;;19.00;99.90;;;18.60;100.00;98085.00;4961774;28;20050;-71
2022/10/28 07:50:35;;;;;;;15.18;1.73;;;19.10;99.90;;;18.64;100.00;98093.53;4965128;28;20061;-71
2022/10/28 07:53:02;;;;;;;14.43;2.15;;;19.20;99.90;;;18.72;100.00;98091.22;4966130;28;20065;-71
2022/10/28 07:55:29;;;;;;;16.27;2.05;;;19.20;99.90;;;18.75;100.00;98096.28;4969606;28;20146;-71
2022/10/28 07:57:57;;;;;;;15.65;2.03;;;19.30;99.90;;;18.70;100.00;98094.88;4968283;28;20450;-71
2022/10/28 08:00:24;;;;;;;8.77;1.77;;;19.30;99.90;;;18.61;100.00;98091.13;4966225;28;20468;-71
2022/10/28 08:02:51;;;;;;;10.20;1.63;;;19.20;99.90;;;18.66;100.00;98089.00;4978358;28;20062;-70
2022/10/28 08:05:18;;;;;;;11.60;2.33;;;19.30;99.90;;;18.63;100.00;98091.84;4967333;28;20051;-70
2022/10/28 08:07:46;;;;;;;11.80;2.15;;;19.20;99.90;;;18.49;100.00;98092.75;4967515;28;20081;-71
2022/10/28 08:10:13;;;;;;;12.32;2.38;;;19.10;99.90;;;18.68;100.00;98092.38;4969553;28;20046;-71
2022/10/28 08:12:40;;;;;;;15.02;2.55;;;19.20;99.90;;;18.59;100.00;98100.91;4970300;28;20054;-71
2022/10/28 08:15:09;;;;;;;11.13;1.98;;;19.20;99.90;;;18.85;100.00;98098.31;4966972;28;20154;-71
2022/10/28 08:17:36;;;;;;;8.10;1.65;;;19.20;99.90;;;18.76;100.00;98105.00;4970050;28;20065;-71
2022/10/28 08:20:04;;;;;;;13.75;2.30;;;19.20;99.90;;;18.56;100.00;98107.16;4971111;28;20161;-70
2022/10/28 08:22:31;;;;;;;8.40;1.83;;;19.20;99.90;;;18.59;100.00;98106.97;4965185;28;20153;-71
2022/10/28 08:24:58;;;;;;;12.73;2.30;;;19.20;99.90;;;18.49;100.00;98103.28;4969675;28;20054;-71
2022/10/28 08:27:25;;;;;;;12.13;2.05;;;19.20;99.90;;;18.64;100.00;98105.84;4970795;28;20046;-70
2022/10/28 08:29:52;;;;;;;14.50;2.25;;;19.20;99.90;;;18.72;100.00;98104.34;4968098;28;20070;-71
2022/10/28 08:32:19;;;;;;;13.50;2.10;;;19.20;99.90;;;18.79;100.00;98107.44;4970954;28;20424;-71
2022/10/28 08:34:46;;;;;;;12.50;1.85;;;19.30;99.90;;;18.88;100.00;98117.34;4974377;28;20054;-72
2022/10/28 08:37:14;;;;;;;15.45;2.25;;;19.40;99.90;;;19.05;100.00;98124.09;4987244;28;20062;-71
2022/10/28 08:39:42;;;;;;;12.65;2.08;;;19.50;99.90;;;19.19;100.00;98124.00;4971199;28;20113;-71
2022/10/28 08:42:39;;;;;;;9.90;2.03;;;19.70;99.90;;;19.22;100.00;98131.66;4971384;28;20070;-71
2022/10/28 08:45:19;;;;;;;19.23;2.55;;;19.80;99.90;;;19.30;100.00;98115.34;4970577;28;20054;-71
2022/10/28 08:48:08;;;;;;;10.55;1.73;;;19.90;99.90;;;19.32;100.00;98112.63;4971948;28;20050;-71
2022/10/28 08:51:37;;;;;;;11.70;2.00;;;20.00;99.90;;;19.28;100.00;98119.06;4969905;28;20078;-69
2022/10/28 08:54:17;;;;;;;10.27;1.70;;;20.00;99.90;;;19.31;100.00;98111.75;4981701;28;20054;-70
2022/10/28 08:56:47;;;;;;;10.07;2.28;;;19.90;99.90;;;19.23;100.00;98114.94;4972662;28;20433;-71
2022/10/28 08:59:28;;;;;;;13.23;2.92;;;19.90;99.90;;;19.17;100.00;98125.88;4982646;28;20054;-71
2022/10/28 09:02:18;;;;;;;13.30;2.65;;;19.80;99.90;;;19.28;100.00;98122.53;4987109;28;20061;-71
2022/10/28 09:04:46;;;;;;;14.13;2.17;;;19.90;99.90;;;19.18;100.00;98135.47;4968975;28;20496;-70
2022/10/28 09:07:19;;;;;;;10.77;2.28;;;19.80;99.90;;;19.14;100.00;98123.47;4989383;28;20515;-71
2022/10/28 09:09:48;;;;;;;12.07;2.17;;;19.70;99.90;;;19.21;100.00;98131.78;4961049;28;20157;-71
2022/10/28 09:12:52;;;;;;;12.50;2.03;;;19.80;99.90;;;19.30;100.00;98130.31;4977221;28;20485;-70
2022/10/28 09:16:06;;;;;;;14.20;2.35;;;19.80;99.90;;;19.32;100.00;98129.25;4969897;28;20154;-71
2022/10/28 09:18:49;;;;;;;11.70;2.25;;;19.90;99.90;;;19.48;100.00;98136.94;4968523;28;20134;-69
2022/10/28 09:21:38;;;;;;;15.90;2.60;;;20.10;99.90;;;19.60;100.00;98136.06;4985728;28;20039;-69
2022/10/28 09:24:12;;;;;;;12.80;2.58;;;20.30;99.90;;;19.67;100.00;98133.84;4983395;28;20061;-69
2022/10/28 09:26:57;;;;;;;13.63;3.80;;;20.40;99.90;;;19.96;100.00;98147.59;4971149;28;20533;-69
2022/10/28 09:29:53;;;;;;;11.05;2.90;;;20.50;99.90;;;19.95;100.00;98145.06;4984278;28;20057;-69
2022/10/28 09:32:35;;;;;;;12.07;2.10;;;20.60;99.90;;;20.11;100.00;98147.44;4982107;28;20069;-69
2022/10/28 09:35:15;;;;;;;23.38;2.38;;;20.70;99.90;;;20.34;100.00;98146.59;4968700;28;20046;-70
2022/10/28 09:37:49;;;;;;;13.02;2.03;;;;;;;20.42;100.00;98152.16;4967644;28;20051;-69
2022/10/28 09:40:26;;;;;;;11.35;2.25;;;20.90;99.90;;;20.47;100.00;98141.25;4967919;28;20068;-70
2022/10/28 09:43:26;;;;;;;11.73;1.90;;;21.00;99.90;;;20.61;100.00;98150.81;4984346;28;20062;-69
2022/10/28 09:46:02;;;;;;;9.95;2.10;;;21.20;99.90;;;20.63;100.00;98149.75;4949835;28;20058;-70
2022/10/28 09:48:34;;;;;;;13.25;1.83;;;21.20;99.90;;;20.69;100.00;98156.38;4970712;28;20750;-70
2022/10/28 09:51:01;;;;;;;17.38;2.50;;;21.20;99.90;;;20.64;100.00;98140.03;4968456;28;20426;-70
2022/10/28 09:53:47;;;;;;;14.65;2.53;;;21.30;99.90;;;20.83;100.00;98160.63;4971001;28;20058;-70
2022/10/28 09:56:14;;;;;;;13.15;2.30;;;21.50;99.90;;;20.95;100.00;98143.00;4968899;28;20063;-70
2022/10/28 09:58:46;;;;;;;11.55;2.17;;;21.60;99.90;;;20.94;100.00;98144.81;4970081;28;20053;-71
2022/10/28 10:01:16;;;;;;;13.38;2.35;;;21.60;99.90;;;21.12;100.00;98155.78;4982522;28;20080;-70
2022/10/28 10:03:47;;;;;;;14.63;2.45;;;21.70;99.90;;;21.16;100.00;98157.19;4967556;28;20231;-69
2022/10/28 10:06:27;;;;;;;12.18;1.73;;;21.90;99.90;;;21.21;100.00;98170.03;4982443;28;20047;-70
2022/10/28 10:08:55;;;;;;;14.32;2.20;;;22.00;99.90;;;21.46;100.00;98166.38;4964986;28;20143;-70
2022/10/28 10:11:39;;;;;;;16.83;2.83;;;22.20;99.90;;;21.70;100.00;98166.28;4966854;28;20043;-70
2022/10/28 10:14:19;;;;;;;13.65;2.58;;;22.40;99.90;;;21.68;100.00;98168.19;4980287;28;20051;-70
2022/10/28 10:17:02;;;;;;;18.65;2.20;;;22.60;99.90;;;21.75;100.00;98176.47;4983020;28;20522;-69
2022/10/28 10:20:00;;;;;;;11.02;1.77;;;22.60;99.90;;;21.98;100.00;98174.66;4965128;28;20508;-68
2022/10/28 10:22:37;;;;;;;12.10;1.75;;;22.60;99.90;;;21.99;100.00;98177.19;4983798;28;20060;-69
2022/10/28 10:25:24;;;;;;;11.07;1.95;;;22.70;99.90;;;21.90;100.00;98176.09;4981270;28;20058;-69
2022/10/28 10:28:02;;;;;;;16.00;2.03;;;22.70;99.90;;;21.72;100.00;98172.28;4966286;28;20053;-71
2022/10/28 10:30:38;;;;;;;14.88;2.67;;;22.80;99.90;;;21.88;100.00;98178.03;4985736;28;20508;-68
2022/10/28 10:33:06;;;;;;;10.48;1.67;;;22.90;99.90;;;21.99;100.00;98173.72;4964877;28;20413;-69